Preview of NWS' New Version of Forecast
This preview is not operational and should not be used for support decisions.

Terminal Aerodrome Forecast (TAF)

Issued by National Weather Service (NWS)

                            
245 
FTUS42 KMFL 250535
TAFMIA
TAF
KMIA 250535Z 2506/2612 VRB05KT P6SM VCSH SCT025 BKN050 BKN250
     FM251200 10008KT P6SM VCSH FEW020 SCT035 BKN100
     FM251600 13012KT P6SM VCTS SCT020CB BKN040 BKN100
     FM260300 11010KT P6SM VCSH FEW015 SCT030 BKN120=